createdAt,value
2022-09-25T00:00:26.965Z,11.70
2022-09-25T00:01:27.053Z,11.73
2022-09-25T00:02:27.025Z,11.68
2022-09-25T00:03:26.961Z,11.73
2022-09-25T00:04:26.952Z,11.81
2022-09-25T00:05:27.849Z,11.72
2022-09-25T00:06:26.980Z,11.73
2022-09-25T00:07:27.516Z,11.73
2022-09-25T00:08:27.016Z,11.73
2022-09-25T00:09:27.523Z,11.72
2022-09-25T00:10:26.933Z,11.75
2022-09-25T00:11:26.910Z,11.70
2022-09-25T00:12:27.527Z,11.70
2022-09-25T00:13:26.950Z,11.73
2022-09-25T00:14:27.729Z,11.81
2022-09-25T00:15:26.902Z,11.75
2022-09-25T00:16:27.832Z,11.68
2022-09-25T00:17:27.812Z,11.70
2022-09-25T00:18:26.859Z,11.80
2022-09-25T00:19:26.809Z,11.73
2022-09-25T00:20:27.734Z,11.80
2022-09-25T00:21:26.829Z,11.73
2022-09-25T00:22:27.602Z,11.77
2022-09-25T00:23:27.704Z,11.78
2022-09-25T00:24:26.766Z,11.72
2022-09-25T00:25:26.866Z,11.73
2022-09-25T00:26:26.800Z,11.78
2022-09-25T00:27:26.819Z,11.80
2022-09-25T00:28:26.771Z,11.80
2022-09-25T00:29:26.781Z,11.78
2022-09-25T00:30:26.760Z,11.78
2022-09-25T00:31:26.786Z,11.75
2022-09-25T00:32:26.723Z,11.78
2022-09-25T00:33:26.770Z,11.77
2022-09-25T00:34:27.519Z,11.75
2022-09-25T00:35:26.814Z,11.78
2022-09-25T00:36:28.161Z,11.77
2022-09-25T00:37:26.739Z,11.78
2022-09-25T00:38:28.053Z,11.81
2022-09-25T00:39:27.817Z,11.80
2022-09-25T00:40:28.177Z,11.83
2022-09-25T00:41:27.525Z,11.81
2022-09-25T00:42:27.543Z,11.90
2022-09-25T00:43:28.530Z,11.87
2022-09-25T00:44:27.741Z,11.84
2022-09-25T00:45:26.686Z,11.81
2022-09-25T00:46:27.321Z,11.86
2022-09-25T00:47:30.141Z,11.80
2022-09-25T00:48:29.531Z,11.75
2022-09-25T00:49:29.048Z,11.81
2022-09-25T00:50:29.127Z,11.81
2022-09-25T00:51:26.642Z,11.84
2022-09-25T00:52:31.092Z,11.80
2022-09-25T00:53:47.062Z,11.78
2022-09-25T00:54:27.101Z,11.77
2022-09-25T00:55:26.543Z,11.77
2022-09-25T00:56:28.144Z,11.78
2022-09-25T00:57:26.536Z,11.73
2022-09-25T00:58:26.543Z,11.70
2022-09-25T00:59:26.513Z,11.77
2022-09-25T01:00:26.515Z,11.84
2022-09-25T01:01:30.104Z,11.78
2022-09-25T01:02:26.483Z,11.83
2022-09-25T01:03:26.445Z,11.84
2022-09-25T01:04:26.441Z,11.81
2022-09-25T01:05:26.482Z,11.77
2022-09-25T01:06:28.091Z,11.86
2022-09-25T01:07:26.445Z,11.83
2022-09-25T01:08:26.414Z,11.80
2022-09-25T01:09:26.463Z,11.78
2022-09-25T01:10:27.222Z,11.83
2022-09-25T01:11:27.199Z,11.78
2022-09-25T01:12:26.349Z,11.87
2022-09-25T01:13:29.579Z,11.86
2022-09-25T01:14:26.443Z,11.78
2022-09-25T01:15:26.437Z,11.83
2022-09-25T01:16:27.295Z,11.86
2022-09-25T01:17:26.343Z,11.78
2022-09-25T01:18:26.351Z,11.80
2022-09-25T01:19:26.369Z,11.84
2022-09-25T01:20:26.402Z,11.83
2022-09-25T01:21:27.356Z,11.78
2022-09-25T01:22:27.026Z,11.81
2022-09-25T01:23:27.270Z,11.75
2022-09-25T01:24:26.365Z,11.69
2022-09-25T01:25:26.349Z,11.77
2022-09-25T01:26:26.346Z,11.66
2022-09-25T01:27:28.029Z,11.70
2022-09-25T01:28:26.337Z,11.77
2022-09-25T01:29:27.305Z,11.73
2022-09-25T01:30:26.357Z,11.78
2022-09-25T01:31:26.399Z,11.70
2022-09-25T01:32:27.655Z,11.78
2022-09-25T01:33:26.244Z,11.81
2022-09-25T01:34:27.753Z,11.77
2022-09-25T01:35:26.742Z,11.78
2022-09-25T01:36:27.073Z,11.78
2022-09-25T01:37:26.263Z,11.77
2022-09-25T01:38:26.239Z,11.86
2022-09-25T01:39:26.318Z,11.77
2022-09-25T01:40:26.345Z,11.81
2022-09-25T01:41:26.190Z,11.77
2022-09-25T01:42:26.161Z,11.72
2022-09-25T01:43:27.049Z,11.66
2022-09-25T01:44:27.220Z,11.62
2022-09-25T02:02:53.125Z,11.60
2022-09-25T02:03:53.002Z,11.63
2022-09-25T02:04:54.115Z,11.55
2022-09-25T02:05:54.116Z,11.55
2022-09-25T02:06:54.149Z,11.68
2022-09-25T02:07:54.128Z,11.59
2022-09-25T02:08:54.122Z,11.59
2022-09-25T02:09:54.141Z,11.54
2022-09-25T02:10:55.103Z,11.54
2022-09-25T02:11:54.152Z,11.57
2022-09-25T02:12:54.083Z,11.54
2022-09-25T02:13:54.077Z,11.52
2022-09-25T02:14:54.086Z,11.52
2022-09-25T02:15:54.068Z,11.54
2022-09-25T02:16:54.093Z,11.52
2022-09-25T02:17:54.068Z,11.54
2022-09-25T02:18:54.038Z,11.52
2022-09-25T02:19:54.044Z,11.57
2022-09-25T02:20:54.055Z,11.63
2022-09-25T02:21:54.024Z,11.55
2022-09-25T02:22:54.028Z,11.57
2022-09-25T02:23:54.002Z,11.59
2022-09-25T02:24:58.506Z,11.60
2022-09-25T02:25:55.980Z,11.70
2022-09-25T02:26:53.952Z,11.65
2022-09-25T02:27:53.956Z,11.63
2022-09-25T02:28:53.994Z,11.62
2022-09-25T02:29:53.952Z,11.60
2022-09-25T02:30:55.090Z,11.57
2022-09-25T02:31:53.923Z,11.72
2022-09-25T02:32:53.932Z,11.66
2022-09-25T02:33:53.935Z,11.80
2022-09-25T02:34:53.937Z,11.63
2022-09-25T02:35:53.926Z,11.68
2022-09-25T02:36:53.922Z,11.69
2022-09-25T02:37:53.902Z,11.77
2022-09-25T02:38:53.909Z,11.65
2022-09-25T02:39:53.892Z,11.70
2022-09-25T02:40:53.906Z,11.68
2022-09-25T02:41:53.851Z,11.63
2022-09-25T02:42:53.839Z,11.73
2022-09-25T02:43:53.847Z,11.73
2022-09-25T02:44:53.848Z,11.73
2022-09-25T02:45:53.895Z,11.78
2022-09-25T02:46:53.853Z,11.75
2022-09-25T02:47:53.807Z,11.78
2022-09-25T02:48:53.807Z,11.75
2022-09-25T02:49:53.821Z,11.72
2022-09-25T02:50:53.784Z,11.77
2022-09-25T02:51:53.815Z,11.77
2022-09-25T02:52:53.771Z,11.78
2022-09-25T02:53:53.783Z,11.81
2022-09-25T02:54:53.760Z,11.78
2022-09-25T02:55:53.763Z,11.87
2022-09-25T02:56:53.752Z,11.80
2022-09-25T02:57:53.732Z,11.86
2022-09-25T02:58:53.756Z,11.84
2022-09-25T02:59:53.758Z,11.88
2022-09-25T03:00:53.831Z,11.87
2022-09-25T03:01:53.778Z,11.88
2022-09-25T03:02:54.345Z,11.83
2022-09-25T03:03:53.681Z,11.84
2022-09-25T03:04:53.666Z,11.88
2022-09-25T03:05:53.682Z,11.73
2022-09-25T03:06:53.683Z,11.78
2022-09-25T03:07:53.669Z,11.77
2022-09-25T03:08:53.668Z,11.73
2022-09-25T03:09:53.675Z,11.81
2022-09-25T03:10:53.622Z,11.78
2022-09-25T03:11:53.656Z,11.73
2022-09-25T03:12:53.613Z,11.81
2022-09-25T03:13:53.624Z,11.83
2022-09-25T03:14:53.631Z,11.83
2022-09-25T03:15:53.610Z,11.77
2022-09-25T03:16:53.644Z,11.75
2022-09-25T03:17:53.584Z,11.80
2022-09-25T03:18:53.603Z,11.75
2022-09-25T03:19:53.585Z,11.75
2022-09-25T03:20:53.588Z,11.80
2022-09-25T03:21:53.558Z,11.75
2022-09-25T03:22:54.488Z,11.77
2022-09-25T03:23:53.571Z,11.70
2022-09-25T03:24:53.549Z,11.77
2022-09-25T03:25:53.567Z,11.80
2022-09-25T03:26:53.559Z,11.78
2022-09-25T03:27:53.533Z,11.75
2022-09-25T03:28:53.516Z,11.77
2022-09-25T03:29:54.287Z,11.81
2022-09-25T03:30:53.562Z,11.81
2022-09-25T03:31:53.464Z,11.83
2022-09-25T03:32:53.463Z,11.88
2022-09-25T03:33:53.523Z,11.75
2022-09-25T03:34:53.447Z,11.80
2022-09-25T03:35:53.480Z,11.78
2022-09-25T03:36:53.478Z,11.80
2022-09-25T03:37:53.416Z,11.75
2022-09-25T03:38:53.458Z,11.83
2022-09-25T03:39:53.429Z,11.87
2022-09-25T03:40:53.481Z,11.81
2022-09-25T03:41:53.390Z,11.80
2022-09-25T03:42:53.388Z,11.75
2022-09-25T03:43:53.458Z,11.83
2022-09-25T03:44:53.373Z,11.73
2022-09-25T03:45:53.463Z,11.80
2022-09-25T03:46:53.353Z,11.75
2022-09-25T04:02:48.722Z,11.60
2022-09-25T04:03:48.525Z,11.57
2022-09-25T04:04:49.628Z,11.63
2022-09-25T04:05:49.642Z,11.66
2022-09-25T04:06:49.635Z,11.68
2022-09-25T04:07:49.615Z,11.75
2022-09-25T04:08:49.603Z,11.68
2022-09-25T04:09:49.582Z,11.72
2022-09-25T04:10:49.572Z,11.60
2022-09-25T04:11:49.624Z,11.73
2022-09-25T04:12:49.607Z,11.73
2022-09-25T04:13:49.612Z,11.68
2022-09-25T04:14:49.667Z,11.69
2022-09-25T04:15:49.581Z,11.72
2022-09-25T04:16:49.650Z,11.73
2022-09-25T04:17:49.564Z,11.70
2022-09-25T04:18:49.641Z,11.83
2022-09-25T04:19:49.536Z,11.80
2022-09-25T04:20:49.533Z,11.86
2022-09-25T04:21:49.507Z,11.87
2022-09-25T04:22:49.513Z,11.78
2022-09-25T04:23:49.495Z,11.87
2022-09-25T04:24:49.488Z,11.91
2022-09-25T04:25:49.492Z,11.87
2022-09-25T04:26:49.479Z,11.81
2022-09-25T04:27:49.468Z,11.84
2022-09-25T04:28:49.492Z,11.81
2022-09-25T04:29:49.495Z,11.84
2022-09-25T04:30:49.449Z,11.80
2022-09-25T04:31:49.535Z,11.83
2022-09-25T04:32:49.445Z,11.83
2022-09-25T04:33:49.490Z,11.86
2022-09-25T04:34:49.513Z,11.80
2022-09-25T04:35:49.415Z,11.81
2022-09-25T04:36:49.398Z,11.81
2022-09-25T04:37:49.430Z,11.77
2022-09-25T04:38:49.413Z,11.75
2022-09-25T04:39:49.401Z,11.73
2022-09-25T04:40:49.416Z,11.73
2022-09-25T04:41:49.389Z,11.66
2022-09-25T04:42:49.417Z,11.73
2022-09-25T04:43:49.354Z,11.69
2022-09-25T04:44:49.414Z,11.68
2022-09-25T04:45:49.385Z,11.72
2022-09-25T04:46:49.402Z,11.69
2022-09-25T04:47:49.334Z,11.72
2022-09-25T04:48:49.310Z,11.65
2022-09-25T04:49:49.297Z,11.66
2022-09-25T04:50:49.329Z,11.65
2022-09-25T04:51:49.377Z,11.66
2022-09-25T04:52:49.311Z,11.63
2022-09-25T04:53:49.259Z,11.65
2022-09-25T04:54:49.287Z,11.65
2022-09-25T04:55:49.333Z,11.62
2022-09-25T04:56:49.254Z,11.70
2022-09-25T04:57:58.306Z,11.62
2022-09-25T04:58:51.222Z,11.69
2022-09-25T04:59:49.242Z,11.72
2022-09-25T05:00:49.259Z,11.77
2022-09-25T05:01:49.333Z,11.63
2022-09-25T05:02:49.395Z,11.65
2022-09-25T05:03:49.312Z,11.68
2022-09-25T05:04:49.176Z,11.70
2022-09-25T05:05:49.187Z,11.68
2022-09-25T05:06:49.170Z,11.65
2022-09-25T05:07:49.180Z,11.68
2022-09-25T05:08:49.199Z,11.78
2022-09-25T05:09:49.153Z,11.78
2022-09-25T05:10:49.124Z,11.66
2022-09-25T05:11:49.123Z,11.69
2022-09-25T05:12:49.149Z,11.73
2022-09-25T05:13:49.141Z,11.73
2022-09-25T05:14:49.146Z,11.70
2022-09-25T05:15:49.172Z,11.77
2022-09-25T05:16:49.104Z,11.78
2022-09-25T05:17:49.108Z,11.84
2022-09-25T05:18:49.093Z,11.83
2022-09-25T05:19:49.179Z,11.84
2022-09-25T05:20:49.096Z,11.83
2022-09-25T05:21:49.112Z,11.86
2022-09-25T05:22:49.181Z,11.87
2022-09-25T05:23:49.069Z,11.86
2022-09-25T05:24:49.073Z,11.86
2022-09-25T05:25:49.063Z,11.86
2022-09-25T05:26:49.039Z,11.80
2022-09-25T05:27:49.038Z,11.77
2022-09-25T05:28:49.059Z,11.81
2022-09-25T05:29:49.030Z,11.84
2022-09-25T05:30:49.031Z,11.81
2022-09-25T05:31:49.081Z,11.86
2022-09-25T05:32:49.035Z,11.81
2022-09-25T05:33:49.045Z,11.78
2022-09-25T05:34:48.989Z,11.72
2022-09-25T05:35:48.969Z,11.73
2022-09-25T05:36:48.969Z,11.80
2022-09-25T05:37:48.976Z,11.72
2022-09-25T05:38:48.943Z,11.75
2022-09-25T05:39:49.881Z,11.69
2022-09-25T05:40:49.086Z,11.73
2022-09-25T05:41:48.942Z,11.80
2022-09-25T05:42:52.777Z,11.73
2022-09-25T05:43:48.981Z,11.81
2022-09-25T05:44:49.779Z,11.81
2022-09-25T05:45:48.956Z,11.78
2022-09-25T05:46:48.882Z,11.86
2022-09-25T05:47:48.878Z,11.70
2022-09-25T05:48:48.931Z,11.62
2022-09-25T05:49:49.623Z,11.68
2022-09-25T05:50:48.872Z,11.62
2022-09-25T05:51:48.895Z,11.63
2022-09-25T05:52:48.855Z,11.73
2022-09-25T05:53:49.672Z,11.70
2022-09-25T05:54:48.819Z,11.69
2022-09-25T05:55:48.821Z,11.73
2022-09-25T05:56:48.818Z,11.83
2022-09-25T05:57:48.816Z,11.72
2022-09-25T05:58:50.091Z,11.80
2022-09-25T05:59:48.959Z,11.81
2022-09-25T06:00:49.793Z,11.75
2022-09-25T06:01:48.868Z,11.73
2022-09-25T06:02:49.763Z,11.66
2022-09-25T06:03:49.593Z,11.70
2022-09-25T06:04:48.793Z,11.78
2022-09-25T06:05:49.596Z,11.75
2022-09-25T06:06:48.769Z,11.70
2022-09-25T06:07:48.775Z,11.75
2022-09-25T06:08:48.741Z,11.72
2022-09-25T06:09:48.833Z,11.62
2022-09-25T06:10:49.287Z,11.69
2022-09-25T06:11:48.764Z,11.73
2022-09-25T06:12:48.690Z,11.77
2022-09-25T06:13:54.059Z,11.77
2022-09-25T06:14:50.737Z,11.72
2022-09-25T06:15:48.767Z,11.73
2022-09-25T06:16:48.683Z,11.70
2022-09-25T06:17:48.633Z,11.73
2022-09-25T06:18:48.661Z,11.60
2022-09-25T06:19:49.121Z,11.59
2022-09-25T06:20:49.308Z,11.83
2022-09-25T06:21:48.633Z,11.73
2022-09-25T06:22:48.631Z,11.70
2022-09-25T06:23:48.652Z,11.72
2022-09-25T06:24:49.098Z,11.68
2022-09-25T06:25:49.096Z,11.72
2022-09-25T06:26:48.650Z,11.77
2022-09-25T06:27:48.671Z,11.78
2022-09-25T06:28:48.559Z,11.77
2022-09-25T06:29:48.622Z,11.70
2022-09-25T06:30:48.647Z,11.73
2022-09-25T06:31:48.614Z,11.66
2022-09-25T06:32:48.565Z,11.70
2022-09-25T06:33:48.544Z,11.72
2022-09-25T06:34:48.552Z,11.66
2022-09-25T06:35:48.504Z,11.69
2022-09-25T06:36:49.542Z,11.62
2022-09-25T06:37:48.504Z,11.62
2022-09-25T06:38:49.510Z,11.63
2022-09-25T06:39:48.511Z,11.72
2022-09-25T06:40:48.634Z,11.66
2022-09-25T06:41:48.528Z,11.66
2022-09-25T06:42:48.541Z,11.63
2022-09-25T06:43:48.456Z,11.80
2022-09-25T06:44:48.461Z,11.69
2022-09-25T06:45:48.409Z,11.78
2022-09-25T06:46:48.520Z,11.84
2022-09-25T06:47:48.427Z,11.65
2022-09-25T06:48:48.430Z,11.78
2022-09-25T06:49:48.447Z,11.75
2022-09-25T06:50:48.423Z,11.73
2022-09-25T06:51:48.455Z,11.78
2022-09-25T06:52:48.388Z,11.86
2022-09-25T06:53:48.409Z,11.78
2022-09-25T06:54:48.395Z,11.72
2022-09-25T06:55:48.364Z,11.66
2022-09-25T06:56:48.396Z,11.75
2022-09-25T06:57:48.363Z,11.70
2022-09-25T06:58:49.229Z,11.70
2022-09-25T06:59:49.183Z,11.69
2022-09-25T07:00:48.345Z,11.75
2022-09-25T07:01:49.433Z,11.73
2022-09-25T07:02:48.419Z,11.77
2022-09-25T07:03:48.375Z,11.77
2022-09-25T07:04:48.349Z,11.83
2022-09-25T07:05:49.148Z,11.87
2022-09-25T07:06:49.187Z,11.86
2022-09-25T07:07:48.313Z,11.83
2022-09-25T07:08:48.372Z,11.81
2022-09-25T07:09:48.256Z,11.78
2022-09-25T07:10:48.256Z,11.81
2022-09-25T07:11:48.290Z,11.83
2022-09-25T07:12:48.239Z,11.81
2022-09-25T07:13:48.356Z,11.91
2022-09-25T07:14:48.277Z,11.88
2022-09-25T07:15:48.274Z,11.86
2022-09-25T07:16:48.230Z,11.86
2022-09-25T07:17:48.236Z,11.94
2022-09-25T07:18:48.224Z,11.87
2022-09-25T07:19:48.184Z,12.06
2022-09-25T07:20:48.201Z,12.03
2022-09-25T07:21:48.205Z,12.02
2022-09-25T07:22:48.185Z,11.97
2022-09-25T07:23:48.147Z,12.04
2022-09-25T07:24:48.178Z,12.03
2022-09-25T07:25:48.162Z,12.03
2022-09-25T07:26:48.192Z,12.09
2022-09-25T07:27:48.154Z,12.13
2022-09-25T07:28:48.114Z,12.18
2022-09-25T07:29:48.120Z,12.12
2022-09-25T07:30:48.222Z,12.25
2022-09-25T07:31:48.158Z,12.39
2022-09-25T07:32:48.116Z,12.36
2022-09-25T07:33:48.080Z,12.46
2022-09-25T07:34:48.079Z,12.40
2022-09-25T07:35:48.047Z,12.45
2022-09-25T07:36:48.043Z,12.54
2022-09-25T07:37:48.055Z,12.53
2022-09-25T07:38:48.053Z,12.75
2022-09-25T07:39:48.069Z,12.86
2022-09-25T07:40:48.073Z,12.98
2022-09-25T07:41:48.015Z,13.00
2022-09-25T07:42:48.040Z,13.09
2022-09-25T07:43:48.047Z,13.03
2022-09-25T07:44:48.968Z,13.15
2022-09-25T07:45:48.974Z,13.13
2022-09-25T07:46:47.997Z,13.22
2022-09-25T07:47:47.944Z,13.28
2022-09-25T07:48:47.948Z,13.31
2022-09-25T07:49:47.955Z,13.31
2022-09-25T07:50:47.913Z,13.30
2022-09-25T07:51:47.968Z,13.27
2022-09-25T07:52:47.927Z,13.22
2022-09-25T07:53:47.927Z,13.44
2022-09-25T07:54:47.920Z,13.46
2022-09-25T07:55:47.897Z,13.47
2022-09-25T07:56:47.928Z,13.42
2022-09-25T07:57:47.903Z,13.59
2022-09-25T07:58:47.924Z,13.62
2022-09-25T07:59:47.896Z,13.70
2022-09-25T08:00:47.879Z,13.54
2022-09-25T08:01:53.444Z,13.46
2022-09-25T08:02:49.926Z,13.42
2022-09-25T08:03:47.846Z,13.46
2022-09-25T08:04:47.837Z,13.42
2022-09-25T08:05:47.869Z,13.59
2022-09-25T08:06:47.839Z,13.42
2022-09-25T08:07:47.789Z,13.37
2022-09-25T08:08:48.778Z,13.15
2022-09-25T08:09:47.779Z,13.30
2022-09-25T08:10:47.804Z,13.35
2022-09-25T08:11:47.810Z,13.39
2022-09-25T08:12:47.765Z,13.35
2022-09-25T08:13:47.806Z,13.41
2022-09-25T08:14:47.785Z,13.37
2022-09-25T08:15:48.347Z,13.41
2022-09-25T08:16:47.764Z,13.50
2022-09-25T08:17:47.729Z,13.49
2022-09-25T08:18:47.775Z,13.52
2022-09-25T08:19:48.002Z,13.35
2022-09-25T08:20:47.764Z,13.39
2022-09-25T08:21:47.765Z,13.39
2022-09-25T09:44:03.773Z,14.28
2022-09-25T09:49:44.931Z,14.22
2022-09-25T09:50:42.892Z,14.29
2022-09-25T09:51:39.836Z,14.25
2022-09-25T09:52:38.981Z,14.26
2022-09-25T09:53:38.747Z,14.32
2022-09-25T09:54:38.149Z,14.18
2022-09-25T09:55:38.962Z,14.11
2022-09-25T09:56:38.878Z,14.11
2022-09-25T09:57:40.505Z,14.18
2022-09-25T09:58:38.742Z,14.14
2022-09-25T09:59:39.400Z,14.12
2022-09-25T10:00:38.795Z,14.12
2022-09-25T10:01:42.560Z,14.18
2022-09-25T10:33:48.395Z,14.12
2022-09-25T10:34:57.100Z,14.14
2022-09-25T10:46:14.328Z,14.00
2022-09-25T10:47:13.595Z,13.92
2022-09-25T10:48:15.228Z,13.89
2022-09-25T11:33:53.470Z,13.77
2022-09-25T11:34:53.502Z,13.78
2022-09-25T11:35:56.696Z,13.81
2022-09-25T11:36:55.785Z,13.86
2022-09-25T11:37:54.741Z,13.99
2022-09-25T11:38:54.755Z,13.96
2022-09-25T11:39:55.147Z,14.04
2022-09-25T11:40:56.189Z,14.17
2022-09-25T11:41:54.814Z,14.10
2022-09-25T11:42:55.328Z,14.08
2022-09-25T11:43:58.099Z,14.14
2022-09-25T11:44:55.636Z,14.25
2022-09-25T11:45:55.217Z,14.20
2022-09-25T11:46:54.660Z,14.17
2022-09-25T11:47:56.648Z,14.26
2022-09-25T11:48:54.695Z,14.20
2022-09-25T11:49:54.744Z,14.20
2022-09-25T11:50:54.577Z,14.18
2022-09-25T11:51:55.149Z,14.11
2022-09-25T11:52:54.587Z,14.20
2022-09-25T11:54:03.298Z,14.18
2022-09-25T11:54:56.714Z,14.22
2022-09-25T11:55:54.500Z,14.35
2022-09-25T11:56:54.487Z,14.30
2022-09-25T11:57:55.453Z,14.30
2022-09-25T11:58:56.967Z,14.47
2022-09-25T11:59:54.589Z,14.25
2022-09-25T12:00:55.498Z,14.37
2022-09-25T12:01:54.621Z,14.29
2022-09-25T12:02:54.539Z,14.36
2022-09-25T12:03:55.180Z,14.45
2022-09-25T12:04:55.155Z,14.41
2022-09-25T12:05:55.152Z,14.48
2022-09-25T12:06:54.539Z,14.60
2022-09-25T12:07:54.530Z,14.68
2022-09-25T12:08:54.981Z,14.58
2022-09-25T12:09:54.358Z,14.70
2022-09-25T12:10:54.465Z,14.69
2022-09-25T12:11:54.386Z,14.68
2022-09-25T12:12:54.490Z,14.63
2022-09-25T12:13:55.074Z,14.59
2022-09-25T12:14:54.864Z,14.55
2022-09-25T12:15:55.236Z,14.63
2022-09-25T12:16:54.520Z,14.77
2022-09-25T12:17:55.654Z,14.77
2022-09-25T12:18:55.154Z,14.70
2022-09-25T12:19:55.224Z,14.63
2022-09-25T12:20:54.378Z,14.66
2022-09-25T12:21:54.324Z,14.89
2022-09-25T12:22:55.167Z,14.85
2022-09-25T12:23:54.377Z,14.96
2022-09-25T12:24:54.348Z,15.00
2022-09-25T12:25:54.405Z,14.97
2022-09-25T12:26:55.209Z,14.89
2022-09-25T12:27:56.301Z,14.99
2022-09-25T12:28:56.413Z,15.04
2022-09-25T12:29:55.821Z,15.09
2022-09-25T12:30:58.962Z,14.94
2022-09-25T12:31:55.366Z,14.91
2022-09-25T12:32:55.343Z,14.94
2022-09-25T12:33:55.663Z,15.15
2022-09-25T12:34:56.183Z,15.15
2022-09-25T12:35:56.234Z,15.37
2022-09-25T12:36:56.498Z,15.61
2022-09-25T12:37:56.689Z,15.77
2022-09-25T12:38:54.777Z,15.91
2022-09-25T12:39:56.188Z,15.98
2022-09-25T12:40:55.882Z,15.94
2022-09-25T12:41:54.283Z,15.88
2022-09-25T12:42:58.776Z,15.88
2022-09-25T12:43:57.068Z,16.08
2022-09-25T12:44:56.647Z,16.15
2022-09-25T12:45:55.366Z,16.21
2022-09-25T12:46:54.667Z,16.12
2022-09-25T12:47:55.750Z,16.02
2022-09-25T12:48:55.222Z,16.02
2022-09-25T12:50:01.193Z,16.02
2022-09-25T12:51:01.472Z,15.95
2022-09-25T12:51:57.680Z,15.70
2022-09-25T12:52:56.166Z,15.83
2022-09-25T12:53:56.828Z,15.83
2022-09-25T12:54:54.270Z,15.72
2022-09-25T12:55:55.766Z,15.73
2022-09-25T12:56:56.669Z,15.73
2022-09-25T12:57:55.688Z,15.72
2022-09-25T12:58:56.668Z,15.73
2022-09-25T12:59:55.733Z,15.92
2022-09-25T13:00:54.702Z,15.98
2022-09-25T13:01:54.221Z,15.80
2022-09-25T13:02:54.679Z,15.68
2022-09-25T13:03:55.670Z,15.58
2022-09-25T13:04:55.669Z,15.52
2022-09-25T13:05:55.669Z,15.37
2022-09-25T13:07:01.983Z,15.19
2022-09-25T13:07:55.668Z,15.21
2022-09-25T13:08:54.770Z,15.18
2022-09-25T13:09:54.739Z,15.22
2022-09-25T13:10:54.486Z,15.29
2022-09-25T13:11:54.672Z,15.19
2022-09-25T13:12:54.246Z,15.09
2022-09-25T13:13:54.682Z,15.04
2022-09-25T13:14:54.668Z,15.14
2022-09-25T13:15:54.670Z,15.24
2022-09-25T13:16:55.216Z,15.28
2022-09-25T13:17:55.184Z,15.28
2022-09-25T13:18:59.662Z,15.27
2022-09-25T13:19:56.294Z,15.33
2022-09-25T13:20:54.736Z,15.47
2022-09-25T13:21:54.552Z,15.44
2022-09-25T13:22:55.675Z,15.24
2022-09-25T13:23:58.755Z,15.35
2022-09-25T13:29:04.016Z,15.70
2022-09-25T13:30:03.949Z,15.72
2022-09-25T13:31:08.668Z,15.72
2022-09-25T13:32:05.063Z,15.52
2022-09-25T13:33:04.034Z,15.40
2022-09-25T13:34:04.771Z,15.39
2022-09-25T13:35:04.634Z,15.42
2022-09-25T13:36:04.662Z,15.29
2022-09-25T13:37:05.606Z,15.06
2022-09-25T13:38:04.654Z,15.09
2022-09-25T13:39:05.600Z,15.11
2022-09-25T13:40:05.104Z,15.17
2022-09-25T13:41:04.600Z,15.14
2022-09-25T13:42:17.621Z,15.21
2022-09-25T13:49:04.341Z,15.35
2022-09-25T13:50:06.629Z,15.37
2022-09-25T13:54:06.947Z,15.18
2022-09-25T13:55:10.467Z,15.25
2022-09-25T13:56:11.780Z,15.27
2022-09-25T14:04:21.561Z,15.04
2022-09-25T14:05:21.875Z,15.11
2022-09-25T14:06:22.710Z,15.11
2022-09-25T14:07:27.890Z,15.15
2022-09-25T14:08:36.534Z,15.35
2022-09-25T14:09:33.166Z,15.29
2022-09-25T14:10:36.137Z,15.42
2022-09-25T14:11:30.882Z,15.55
2022-09-25T14:12:37.379Z,15.54
2022-09-25T14:13:32.901Z,15.43
2022-09-25T14:14:41.370Z,15.42
2022-09-25T14:15:33.858Z,15.39
2022-09-25T14:16:38.917Z,15.36
2022-09-25T14:17:47.055Z,15.46
2022-09-25T14:24:03.363Z,15.49
2022-09-25T14:25:03.341Z,15.49
2022-09-25T14:26:03.345Z,15.49
2022-09-25T14:27:03.411Z,15.47
2022-09-25T14:28:03.364Z,15.40
2022-09-25T14:29:04.483Z,15.51
2022-09-25T14:30:04.482Z,15.44
2022-09-25T14:31:06.773Z,15.54
2022-09-25T14:32:06.385Z,15.54
2022-09-25T14:33:04.451Z,15.65
2022-09-25T14:34:04.471Z,15.83
2022-09-25T14:35:04.441Z,15.59
2022-09-25T14:36:04.478Z,15.47
2022-09-25T14:37:04.406Z,15.44
2022-09-25T14:38:04.439Z,15.54
2022-09-25T14:39:04.406Z,15.75
2022-09-25T14:40:04.406Z,15.65
2022-09-25T14:41:04.423Z,15.64
2022-09-25T14:42:04.380Z,15.59
2022-09-25T14:43:04.364Z,15.58
2022-09-25T14:44:04.392Z,15.55
2022-09-25T14:45:04.349Z,15.43
2022-09-25T14:46:05.360Z,15.61
2022-09-25T14:47:04.372Z,15.52
2022-09-25T14:48:04.302Z,15.51
2022-09-25T14:49:04.332Z,15.59
2022-09-25T14:50:04.387Z,15.59
2022-09-25T14:51:04.331Z,15.55
2022-09-25T14:52:04.369Z,15.57
2022-09-25T14:53:04.325Z,15.64
2022-09-25T14:54:04.343Z,15.52
2022-09-25T14:55:04.227Z,15.58
2022-09-25T14:56:04.260Z,15.65
2022-09-25T14:57:04.265Z,15.77
2022-09-25T14:58:04.228Z,15.82
2022-09-25T14:59:04.268Z,15.64
2022-09-25T15:00:04.363Z,15.76
2022-09-25T15:01:04.304Z,15.65
2022-09-25T15:02:05.051Z,15.65
2022-09-25T15:03:04.269Z,15.44
2022-09-25T15:04:04.196Z,15.46
2022-09-25T15:05:04.237Z,15.49
2022-09-25T15:06:04.220Z,15.39
2022-09-25T15:07:04.207Z,15.46
2022-09-25T15:08:04.207Z,15.39
2022-09-25T15:09:04.229Z,15.39
2022-09-25T15:10:04.240Z,15.35
2022-09-25T15:11:04.154Z,15.47
2022-09-25T15:12:04.136Z,15.54
2022-09-25T15:13:04.155Z,15.55
2022-09-25T15:14:04.251Z,15.46
2022-09-25T15:15:04.151Z,15.49
2022-09-25T15:16:04.200Z,15.47
2022-09-25T15:17:05.099Z,15.35
2022-09-25T15:18:04.082Z,15.19
2022-09-25T15:19:04.057Z,15.28
2022-09-25T15:20:04.135Z,15.19
2022-09-25T15:21:04.096Z,15.14
2022-09-25T15:22:04.143Z,15.19
2022-09-25T15:23:04.140Z,15.14
2022-09-25T15:24:04.074Z,15.17
2022-09-25T15:25:04.031Z,15.15
2022-09-25T15:26:05.098Z,15.25
2022-09-25T15:27:04.072Z,15.19
2022-09-25T15:28:04.072Z,15.28
2022-09-25T15:29:04.039Z,15.40
2022-09-25T15:30:04.005Z,15.21
2022-09-25T15:31:04.068Z,15.02
2022-09-25T15:32:03.980Z,15.11
2022-09-25T15:33:03.977Z,15.10
2022-09-25T15:34:04.154Z,15.04
2022-09-25T15:35:03.957Z,15.19
2022-09-25T15:36:03.964Z,15.22
2022-09-25T15:37:03.966Z,15.07
2022-09-25T15:38:03.961Z,15.03
2022-09-25T15:39:03.954Z,15.06
2022-09-25T15:40:03.913Z,15.03
2022-09-25T15:41:04.019Z,15.02
2022-09-25T15:42:03.957Z,14.92
2022-09-25T15:43:03.893Z,14.92
2022-09-25T15:44:07.656Z,14.92
2022-09-25T15:45:04.887Z,14.84
2022-09-25T15:46:04.003Z,14.84
2022-09-25T15:47:03.965Z,14.91
2022-09-25T15:48:03.867Z,14.79
2022-09-25T15:49:03.873Z,14.70
2022-09-25T15:50:03.868Z,14.81
2022-09-25T15:51:03.900Z,14.69
2022-09-25T15:52:03.994Z,14.70
2022-09-25T15:53:03.902Z,14.63
2022-09-25T15:54:03.970Z,14.78
2022-09-25T15:55:03.811Z,14.62
2022-09-25T15:56:03.845Z,14.59
2022-09-25T15:57:03.810Z,14.58
2022-09-25T15:58:03.800Z,14.54
2022-09-25T15:59:04.390Z,14.47
2022-09-25T16:00:03.860Z,14.60
2022-09-25T16:01:03.835Z,14.53
2022-09-25T16:02:03.892Z,14.58
2022-09-25T16:03:03.833Z,14.68
2022-09-25T16:04:03.806Z,14.66
2022-09-25T16:05:03.753Z,14.69
2022-09-25T16:06:03.750Z,14.70
2022-09-25T16:07:03.757Z,14.68
2022-09-25T16:08:03.740Z,14.65
2022-09-25T16:09:03.811Z,14.54
2022-09-25T16:10:03.735Z,14.63
2022-09-25T16:11:04.641Z,14.55
2022-09-25T16:12:03.704Z,14.55
2022-09-25T16:13:03.694Z,14.62
2022-09-25T16:14:03.680Z,14.53
2022-09-25T16:15:03.725Z,14.59
2022-09-25T16:16:03.756Z,14.47
2022-09-25T16:17:03.721Z,14.53
2022-09-25T16:18:06.167Z,14.54
2022-09-25T16:19:04.729Z,14.44
2022-09-25T16:20:03.639Z,14.40
2022-09-25T16:21:04.392Z,14.41
2022-09-25T16:22:03.658Z,14.41
2022-09-25T16:23:03.631Z,14.50
2022-09-25T16:24:03.659Z,14.53
2022-09-25T16:25:05.083Z,14.48
2022-09-25T16:26:05.451Z,14.47
2022-09-25T16:27:03.629Z,14.43
2022-09-25T16:28:03.610Z,14.45
2022-09-25T16:29:03.562Z,14.35
2022-09-25T16:30:04.641Z,14.35
2022-09-25T16:31:04.619Z,14.43
2022-09-25T16:32:03.550Z,14.35
2022-09-25T16:33:04.443Z,14.43
2022-09-25T16:34:03.544Z,14.48
2022-09-25T16:35:03.604Z,14.40
2022-09-25T16:36:14.541Z,14.41
2022-09-25T16:37:05.541Z,14.44
2022-09-25T16:38:03.533Z,14.47
2022-09-25T16:39:03.588Z,14.47
2022-09-25T16:40:03.503Z,14.44
2022-09-25T16:41:03.510Z,14.47
2022-09-25T16:42:05.153Z,14.44
2022-09-25T16:43:03.512Z,14.44